Huvudsida
METAR-TAF:

METAR-TAF

Flygplatser :

Trat, Thailand

latitud: 12-16-28N, longitud: 102-19-08E, höjd: 32 m

Aktuellt väderrapport

Denna rapport gjordes för 2 timmar och 50 minuter sedan, klockan 11:00 UTC
Vind 6 kt från väst/sydväst
Temperatur 31°C
Fuktighet 75%
Tryck 1006 hPa
Sikt 10 km eller mer
Få moln på en höjd av 2000 ft

METAR: VTBO 241100Z 25006KT 9999 FEW020 31/26 Q1006

Tid: 20:50 (13:50 UTC)

Väderprognos

Denna rapport gjordes för 2 timmar och 50 minuter sedan, klockan 11:00 UTC
Prognos gäller från 24 kl. 12 UTC till 25 kl. 12 UTC
Vind 10 kt från sydväst
Sikt: 9000 m
Få moln på en höjd av 2000 ft
Blir
från 24 kl. 20 UTC till 24 kl. 22 UTC
Vind 5 kt från syd
Sikt: 4000 m
fuktdis
Blir
från 25 kl. 01 UTC till 25 kl. 03 UTC
Vind 10 kt från sydväst
Sikt: 9000 m

TAF: VTBO 241100Z 2412/2512 23010KT 9000 FEW020 BECMG 2420/2422 17005KT 4000 BR BECMG 2501/2503 23010KT 9000 NSW

Aktuella väderrapporter och prognoser från 4000 flygplatser (METAR- och TAF-rapporter).

De tillgängliga stationerna syns som gula och röda prickar på kartan.

För musen över prickarna för att se namnen på stationerna.

Klicka sedan för att få väderrapporter och prognoser.

För att ändra kartan: Klicka på de gröna knapparna med ett svart kors på för att zooma in; den gröna knappen med ett streck på för att zooma ut; eller på de gröna pilarna för angränsande kartor.


METAR-TAF: